createdAt,value
2024-05-09T00:00:42.635Z,0.0000
2024-05-09T00:01:43.811Z,0.0000
2024-05-09T00:02:44.679Z,0.0000
2024-05-09T00:03:46.072Z,0.0000
2024-05-09T00:04:47.088Z,0.0000
2024-05-09T00:05:47.792Z,0.0000
2024-05-09T00:06:48.457Z,0.0000
2024-05-09T00:07:49.009Z,0.0000
2024-05-09T00:08:49.670Z,0.0000
2024-05-09T00:09:51.355Z,0.0000
2024-05-09T00:10:52.078Z,0.0000
2024-05-09T00:11:52.775Z,0.0000
2024-05-09T00:12:53.258Z,0.0000
2024-05-09T00:13:53.969Z,0.0000
2024-05-09T00:14:54.490Z,0.0000
2024-05-09T00:15:56.359Z,0.0000
2024-05-09T00:16:57.170Z,0.0000
2024-05-09T00:17:57.997Z,0.0000
2024-05-09T00:18:58.936Z,0.0000
2024-05-09T00:19:59.703Z,0.0000
2024-05-09T00:21:00.594Z,0.0000
2024-05-09T00:22:01.483Z,0.0000
2024-05-09T00:23:02.221Z,0.0000
2024-05-09T00:24:03.478Z,0.0000
2024-05-09T00:25:04.194Z,0.0000
2024-05-09T00:26:04.877Z,0.0000
2024-05-09T00:27:05.775Z,0.0000
2024-05-09T00:28:09.055Z,0.0000
2024-05-09T00:29:10.055Z,0.0000
2024-05-09T00:30:14.509Z,0.0000
2024-05-09T00:31:18.346Z,0.0000
2024-05-09T00:32:19.480Z,0.0000
2024-05-09T00:33:20.855Z,0.0000
2024-05-09T00:34:22.148Z,0.0000
2024-05-09T00:35:23.623Z,0.0000
2024-05-09T00:36:24.765Z,0.0000
2024-05-09T00:37:25.841Z,0.0000
2024-05-09T00:38:26.989Z,0.0000
2024-05-09T00:39:28.163Z,0.0000
2024-05-09T00:40:35.766Z,0.0000
2024-05-09T00:41:36.639Z,0.0000
2024-05-09T00:42:38.805Z,0.0000
2024-05-09T00:43:40.062Z,0.0000
2024-05-09T00:44:41.318Z,0.0000
2024-05-09T00:45:42.607Z,0.0000
2024-05-09T00:46:43.905Z,0.0000
2024-05-09T00:47:45.201Z,0.0000
2024-05-09T00:48:46.552Z,0.0000
2024-05-09T00:49:47.664Z,0.0000
2024-05-09T00:50:48.854Z,0.0000
2024-05-09T00:51:49.824Z,0.0000
2024-05-09T00:52:50.892Z,0.0000
2024-05-09T00:53:51.856Z,0.0000
2024-05-09T00:54:52.736Z,0.0000
2024-05-09T00:55:53.581Z,0.0000
2024-05-09T00:56:54.258Z,0.0000
2024-05-09T00:57:55.082Z,0.0000
2024-05-09T00:58:55.841Z,0.0000
2024-05-09T00:59:56.906Z,0.0000
2024-05-09T01:00:57.508Z,0.0000
2024-05-09T01:01:58.295Z,0.0000
2024-05-09T01:02:59.132Z,0.0000
2024-05-09T01:03:59.834Z,0.0000
2024-05-09T01:05:00.562Z,0.0000
2024-05-09T01:06:01.178Z,0.0000
2024-05-09T01:07:01.811Z,0.0000
2024-05-09T01:08:02.453Z,0.0000
2024-05-09T01:09:03.026Z,0.0000
2024-05-09T01:10:05.578Z,0.0000
2024-05-09T01:11:07.881Z,0.0000
2024-05-09T01:12:08.606Z,0.0000
2024-05-09T01:13:09.158Z,0.0000
2024-05-09T01:14:09.616Z,0.0000
2024-05-09T01:15:10.028Z,0.0000
2024-05-09T01:16:10.431Z,0.0000
2024-05-09T01:17:10.867Z,0.0000
2024-05-09T01:18:12.408Z,0.0000
2024-05-09T01:19:14.390Z,0.0000
2024-05-09T01:20:20.216Z,0.0000
2024-05-09T01:21:21.526Z,0.0000
2024-05-09T01:22:21.816Z,0.0000
2024-05-09T01:23:22.131Z,0.0000
2024-05-09T01:24:22.517Z,0.0000
2024-05-09T01:25:22.818Z,0.0000
2024-05-09T01:26:23.053Z,0.0000
2024-05-09T01:27:23.596Z,0.0000
2024-05-09T01:28:23.847Z,0.0000
2024-05-09T01:29:24.233Z,0.0000
2024-05-09T01:30:31.836Z,0.0000
2024-05-09T01:31:31.165Z,0.0000
2024-05-09T01:32:31.627Z,0.0000
2024-05-09T01:33:33.273Z,0.0000
2024-05-09T01:34:33.960Z,0.0000
2024-05-09T01:35:34.286Z,0.0000
2024-05-09T01:36:34.682Z,0.0000
2024-05-09T01:37:34.833Z,0.0000
2024-05-09T01:38:35.263Z,0.0000
2024-05-09T01:39:35.730Z,0.0000
2024-05-09T01:40:38.930Z,0.0000
2024-05-09T01:41:40.860Z,0.0000
2024-05-09T01:42:41.076Z,0.0000
2024-05-09T01:43:41.887Z,0.0000
2024-05-09T01:44:42.136Z,0.0000
2024-05-09T01:45:42.415Z,0.0000
2024-05-09T01:46:42.698Z,0.0000
2024-05-09T01:47:43.159Z,0.0000
2024-05-09T01:48:44.558Z,0.0000
2024-05-09T01:49:44.989Z,0.0000
2024-05-09T01:50:45.494Z,0.0000
2024-05-09T01:51:46.023Z,0.0000
2024-05-09T01:52:46.277Z,0.0000
2024-05-09T01:53:46.505Z,0.0000
2024-05-09T01:54:46.697Z,0.0000
2024-05-09T01:55:46.979Z,0.0000
2024-05-09T01:56:47.337Z,0.0000
2024-05-09T01:57:47.599Z,0.0000
2024-05-09T01:58:47.781Z,0.0000
2024-05-09T01:59:48.008Z,0.0000
2024-05-09T02:00:48.319Z,0.0000
2024-05-09T02:01:56.632Z,0.0000
2024-05-09T02:02:54.946Z,0.0000
2024-05-09T02:03:55.412Z,0.0000
2024-05-09T02:04:56.158Z,0.0000
2024-05-09T02:05:56.517Z,0.0000
2024-05-09T02:06:57.132Z,0.0000
2024-05-09T02:07:57.392Z,0.0000
2024-05-09T02:08:57.546Z,0.0000
2024-05-09T02:09:58.110Z,0.0000
2024-05-09T02:10:58.532Z,0.0000
2024-05-09T02:11:59.086Z,0.0000
2024-05-09T02:12:59.334Z,0.0000
2024-05-09T02:13:59.700Z,0.0000
2024-05-09T02:14:59.934Z,0.0000
2024-05-09T02:16:00.217Z,0.0000
2024-05-09T02:17:00.556Z,0.0000
2024-05-09T02:18:01.121Z,0.0000
2024-05-09T02:19:01.739Z,0.0000
2024-05-09T02:20:02.115Z,0.0000
2024-05-09T02:21:02.720Z,0.0000
2024-05-09T02:22:02.950Z,0.0000
2024-05-09T02:23:03.305Z,0.0000
2024-05-09T02:24:03.627Z,0.0000
2024-05-09T02:25:03.841Z,0.0000
2024-05-09T02:26:04.497Z,0.0000
2024-05-09T02:27:04.741Z,0.0000
2024-05-09T02:28:05.080Z,0.0000
2024-05-09T02:29:05.393Z,0.0000
2024-05-09T02:30:15.150Z,0.0000
2024-05-09T02:31:13.510Z,0.0000
2024-05-09T02:32:14.104Z,0.0000
2024-05-09T02:33:15.002Z,0.0000
2024-05-09T02:34:16.310Z,0.0000
2024-05-09T02:35:16.604Z,0.0000
2024-05-09T02:36:16.771Z,0.0000
2024-05-09T02:37:16.937Z,0.0000
2024-05-09T02:38:18.221Z,0.0000
2024-05-09T02:39:18.438Z,0.0000
2024-05-09T02:40:25.665Z,0.0000
2024-05-09T02:41:25.977Z,0.0000
2024-05-09T02:42:27.204Z,0.0000
2024-05-09T02:43:27.464Z,0.0000
2024-05-09T02:44:27.763Z,0.0000
2024-05-09T02:45:28.065Z,0.0000
2024-05-09T02:46:28.287Z,0.0000
2024-05-09T02:47:28.808Z,0.0000
2024-05-09T02:48:29.149Z,0.0000
2024-05-09T02:49:29.573Z,0.0000
2024-05-09T02:50:37.036Z,0.0000
2024-05-09T02:51:36.306Z,0.0000
2024-05-09T02:52:36.596Z,0.0000
2024-05-09T02:53:36.903Z,0.0000
2024-05-09T02:54:37.241Z,0.0000
2024-05-09T02:55:37.533Z,0.0000
2024-05-09T02:56:37.991Z,0.0000
2024-05-09T02:57:38.413Z,0.0000
2024-05-09T02:58:38.795Z,0.0000
2024-05-09T02:59:39.078Z,0.0000
2024-05-09T03:00:41.666Z,0.0000
2024-05-09T03:01:45.743Z,0.0000
2024-05-09T03:02:46.164Z,0.0000
2024-05-09T03:03:46.559Z,0.0000
2024-05-09T03:04:47.024Z,0.0000
2024-05-09T03:05:47.495Z,0.0000
2024-05-09T03:06:47.945Z,0.0000
2024-05-09T03:07:48.124Z,0.0000
2024-05-09T03:08:48.420Z,0.0000
2024-05-09T03:09:48.606Z,0.0000
2024-05-09T03:10:49.097Z,0.0000
2024-05-09T03:11:49.510Z,0.0000
2024-05-09T03:12:49.814Z,0.0000
2024-05-09T03:13:50.024Z,0.0000
2024-05-09T03:14:50.297Z,0.0000
2024-05-09T03:15:50.722Z,0.0000
2024-05-09T03:16:51.066Z,0.0000
2024-05-09T03:17:51.696Z,0.0000
2024-05-09T03:18:52.075Z,0.0000
2024-05-09T03:19:52.413Z,0.0000
2024-05-09T03:20:52.766Z,0.0000
2024-05-09T03:21:52.943Z,0.0000
2024-05-09T03:22:56.323Z,0.0000
2024-05-09T03:23:57.513Z,0.0000
2024-05-09T03:24:57.731Z,0.0000
2024-05-09T03:25:58.057Z,0.0000
2024-05-09T03:26:58.441Z,0.0000
2024-05-09T03:27:58.686Z,0.0000
2024-05-09T03:28:58.969Z,0.0000
2024-05-09T03:29:59.157Z,0.0000
2024-05-09T03:30:59.321Z,0.0000
2024-05-09T03:31:59.732Z,0.0000
2024-05-09T03:33:00.341Z,0.0000
2024-05-09T03:34:00.827Z,0.0000
2024-05-09T03:35:01.087Z,0.0000
2024-05-09T03:36:01.249Z,0.0000
2024-05-09T03:37:01.531Z,0.0000
2024-05-09T03:38:01.777Z,0.0000
2024-05-09T03:39:02.097Z,0.0000
2024-05-09T03:40:02.875Z,0.0000
2024-05-09T03:41:03.271Z,0.0000
2024-05-09T03:42:03.612Z,0.0000
2024-05-09T03:43:03.830Z,0.0000
2024-05-09T03:44:04.083Z,0.0000
2024-05-09T03:45:04.328Z,0.0000
2024-05-09T03:46:04.515Z,0.0000
2024-05-09T03:47:04.785Z,0.0000
2024-05-09T03:48:05.522Z,0.0000
2024-05-09T03:49:05.893Z,0.0000
2024-05-09T03:50:11.962Z,0.0000
2024-05-09T03:51:12.509Z,0.0000
2024-05-09T03:52:12.809Z,0.0000
2024-05-09T03:53:13.184Z,0.0000
2024-05-09T03:54:13.528Z,0.0000
2024-05-09T03:55:13.725Z,0.0000
2024-05-09T03:56:14.020Z,0.0000
2024-05-09T03:57:14.213Z,0.0000
2024-05-09T03:58:14.564Z,0.0000
2024-05-09T03:59:14.896Z,0.0000
2024-05-09T04:00:21.950Z,0.0000
2024-05-09T04:01:21.414Z,0.0000
2024-05-09T04:02:21.811Z,0.0000
2024-05-09T04:03:22.565Z,0.0000
2024-05-09T04:04:22.959Z,0.0000
2024-05-09T04:05:23.192Z,0.0000
2024-05-09T04:06:23.418Z,0.0000
2024-05-09T04:07:23.631Z,0.0000
2024-05-09T04:08:23.901Z,0.0000
2024-05-09T04:09:24.166Z,0.0000
2024-05-09T04:10:31.181Z,0.0000
2024-05-09T04:11:30.467Z,0.0000
2024-05-09T04:12:30.844Z,0.0000
2024-05-09T04:13:31.020Z,3.3750
2024-05-09T04:14:31.319Z,2.2500
2024-05-09T04:15:31.866Z,5.6250
2024-05-09T04:16:32.344Z,5.6250
2024-05-09T04:17:33.006Z,5.6250
2024-05-09T04:18:33.451Z,5.6250
2024-05-09T04:19:33.722Z,5.6250
2024-05-09T04:20:39.007Z,5.6250
2024-05-09T04:21:40.760Z,5.6250
2024-05-09T04:22:52.957Z,5.6250
2024-05-09T04:23:53.162Z,5.6250
2024-05-09T04:24:53.295Z,5.6250
2024-05-09T04:26:05.285Z,5.6250
2024-05-09T04:27:05.389Z,5.6250
2024-05-09T04:28:17.367Z,5.6250
2024-05-09T04:29:17.494Z,5.6250
2024-05-09T04:30:26.221Z,5.6250
2024-05-09T04:31:24.540Z,5.6250
2024-05-09T04:32:25.467Z,5.6250
2024-05-09T04:33:25.802Z,5.6250
2024-05-09T04:34:26.121Z,5.6250
2024-05-09T04:35:26.372Z,5.6250
2024-05-09T04:36:26.568Z,5.6250
2024-05-09T04:37:26.670Z,5.6250
2024-05-09T04:38:26.672Z,5.6250
2024-05-09T04:39:26.817Z,5.6250
2024-05-09T04:40:33.396Z,5.6250
2024-05-09T04:41:34.028Z,5.6250
2024-05-09T04:42:34.175Z,5.6250
2024-05-09T04:43:34.337Z,5.6250
2024-05-09T04:44:34.607Z,7.8750
2024-05-09T04:45:35.072Z,5.6250
2024-05-09T04:46:35.479Z,5.6250
2024-05-09T04:47:35.861Z,5.6250
2024-05-09T04:48:36.221Z,5.6250
2024-05-09T04:49:37.504Z,10.1250
2024-05-09T04:50:39.307Z,11.2500
2024-05-09T04:51:40.356Z,7.8750
2024-05-09T04:52:40.510Z,5.6250
2024-05-09T04:53:40.936Z,9.0000
2024-05-09T04:54:41.258Z,11.2500
2024-05-09T04:55:41.438Z,11.2500
2024-05-09T04:56:41.562Z,11.2500
2024-05-09T04:57:41.754Z,11.2500
2024-05-09T04:58:42.128Z,11.2500
2024-05-09T04:59:42.284Z,11.2500
2024-05-09T05:00:42.613Z,11.2500
2024-05-09T05:01:42.779Z,11.2500
2024-05-09T05:02:43.229Z,11.2500
2024-05-09T05:03:43.596Z,11.2500
2024-05-09T05:04:43.985Z,14.6250
2024-05-09T05:05:45.441Z,11.2500
2024-05-09T05:06:46.348Z,11.2500
2024-05-09T05:07:46.504Z,11.2500
2024-05-09T05:08:46.718Z,11.2500
2024-05-09T05:09:46.847Z,6.7500
2024-05-09T05:10:47.710Z,5.6250
2024-05-09T05:11:48.619Z,5.6250
2024-05-09T05:12:48.763Z,5.6250
2024-05-09T05:13:48.852Z,5.6250
2024-05-09T05:14:49.511Z,6.7500
2024-05-09T05:15:50.536Z,11.2500
2024-05-09T05:16:50.568Z,11.2500
2024-05-09T05:18:02.753Z,11.2500
2024-05-09T05:19:02.946Z,11.2500
2024-05-09T05:20:04.707Z,13.5000
2024-05-09T05:21:05.032Z,16.8750
2024-05-09T05:22:05.129Z,20.2500
2024-05-09T05:23:05.205Z,21.3750
2024-05-09T05:24:05.285Z,23.6250
2024-05-09T05:25:05.361Z,25.8750
2024-05-09T05:26:17.309Z,21.5625
2024-05-09T05:27:17.330Z,16.8750
2024-05-09T05:28:29.270Z,19.6875
2024-05-09T05:29:29.398Z,18.0000
2024-05-09T05:30:34.443Z,16.8750
2024-05-09T05:31:36.467Z,15.7500
2024-05-09T05:32:36.583Z,11.2500
2024-05-09T05:33:36.944Z,11.2500
2024-05-09T05:34:37.044Z,11.2500
2024-05-09T05:35:37.196Z,11.2500
2024-05-09T05:36:37.299Z,11.2500
2024-05-09T05:37:37.374Z,11.2500
2024-05-09T05:38:37.523Z,15.7500
2024-05-09T05:39:37.532Z,18.0000
2024-05-09T05:40:38.764Z,30.3750
2024-05-09T05:41:40.077Z,29.2500
2024-05-09T05:42:40.131Z,28.1250
2024-05-09T05:43:40.315Z,28.1250
2024-05-09T05:44:40.452Z,27.0000
2024-05-09T05:45:40.562Z,32.6250
2024-05-09T05:46:41.659Z,29.2500
2024-05-09T05:47:42.139Z,28.1250
2024-05-09T05:48:42.495Z,25.8750
2024-05-09T05:49:42.683Z,20.2500
2024-05-09T05:50:42.855Z,16.8750
2024-05-09T05:51:43.176Z,16.8750
2024-05-09T05:52:43.440Z,13.5000
2024-05-09T05:53:43.555Z,16.8750
2024-05-09T05:54:43.705Z,22.5000
2024-05-09T05:55:43.890Z,21.3750
2024-05-09T05:56:44.141Z,22.5000
2024-05-09T05:57:44.367Z,22.5000
2024-05-09T05:58:44.575Z,20.2500
2024-05-09T05:59:44.800Z,20.2500
2024-05-09T06:00:45.044Z,23.6250
2024-05-09T06:01:45.472Z,23.6250
2024-05-09T06:02:45.868Z,18.0000
2024-05-09T06:03:47.335Z,16.8750
2024-05-09T06:04:47.646Z,21.3750
2024-05-09T06:05:47.866Z,22.5000
2024-05-09T06:06:48.115Z,22.5000
2024-05-09T06:07:49.287Z,25.8750
2024-05-09T06:08:49.388Z,37.1250
2024-05-09T06:09:50.652Z,39.3750
2024-05-09T06:10:50.805Z,39.3750
2024-05-09T06:11:52.151Z,39.3750
2024-05-09T06:12:52.130Z,42.7500
2024-05-09T06:13:52.236Z,40.5000
2024-05-09T06:14:52.407Z,40.5000
2024-05-09T06:15:52.454Z,46.1250
2024-05-09T06:16:54.102Z,45.0000
2024-05-09T06:17:55.752Z,50.6250
2024-05-09T06:18:56.567Z,55.1250
2024-05-09T06:19:56.615Z,56.2500
2024-05-09T06:20:56.851Z,60.7500
2024-05-09T06:21:56.919Z,61.8750
2024-05-09T06:22:56.926Z,59.6250
2024-05-09T06:23:56.984Z,57.3750
2024-05-09T06:25:08.814Z,74.0625
2024-05-09T06:26:20.716Z,81.5625
2024-05-09T06:27:32.577Z,78.7500
2024-05-09T06:28:32.560Z,79.8750
2024-05-09T06:29:44.384Z,92.8125
2024-05-09T06:30:44.341Z,97.8750
2024-05-09T06:31:59.495Z,91.8750
2024-05-09T06:33:00.366Z,91.1250
2024-05-09T06:34:12.536Z,107.8125
2024-05-09T06:35:12.602Z,101.2500
2024-05-09T06:36:13.521Z,101.2500
2024-05-09T06:37:25.362Z,106.8750
2024-05-09T06:38:37.268Z,97.5000
2024-05-09T06:39:37.183Z,102.3750
2024-05-09T06:40:49.034Z,107.8125
2024-05-09T06:42:00.823Z,83.4375
2024-05-09T06:43:12.682Z,92.8125
2024-05-09T06:44:12.695Z,91.1250
2024-05-09T06:45:12.716Z,93.3750
2024-05-09T06:46:24.525Z,89.0625
2024-05-09T06:47:36.534Z,89.0625
2024-05-09T06:48:36.767Z,88.8750
2024-05-09T06:49:36.815Z,95.6250
2024-05-09T06:50:38.347Z,109.1250
2024-05-09T06:51:39.594Z,135.0000
2024-05-09T06:52:41.517Z,155.2500
2024-05-09T06:53:41.486Z,101.2500
2024-05-09T06:54:41.577Z,96.7500
2024-05-09T06:55:41.428Z,83.2500
2024-05-09T06:56:53.211Z,71.2500
2024-05-09T06:58:04.938Z,67.5000
2024-05-09T06:59:16.743Z,79.6875
2024-05-09T07:00:35.599Z,73.1250
2024-05-09T07:01:35.287Z,65.2500
2024-05-09T07:02:47.066Z,59.0625
2024-05-09T07:03:47.135Z,50.6250
2024-05-09T07:04:47.241Z,51.7500
2024-05-09T07:05:48.569Z,52.8750
2024-05-09T07:06:50.937Z,47.2500
2024-05-09T07:07:50.923Z,47.2500
2024-05-09T07:08:52.448Z,42.7500
2024-05-09T07:09:52.626Z,51.7500
2024-05-09T07:10:52.784Z,63.0000
2024-05-09T07:11:52.984Z,54.0000
2024-05-09T07:12:53.234Z,56.2500
2024-05-09T07:13:53.207Z,51.7500
2024-05-09T07:14:53.583Z,50.6250
2024-05-09T07:15:53.516Z,51.7500
2024-05-09T07:17:05.404Z,45.9375
2024-05-09T07:18:05.497Z,45.0000
2024-05-09T07:19:05.686Z,39.3750
2024-05-09T07:20:08.963Z,39.3750
2024-05-09T07:21:09.366Z,46.1250
2024-05-09T07:22:21.156Z,69.3750
2024-05-09T07:23:32.905Z,83.4375
2024-05-09T07:24:44.778Z,80.6250
2024-05-09T07:25:56.587Z,75.0000
2024-05-09T07:27:08.266Z,95.6250
2024-05-09T07:28:19.960Z,135.0000
2024-05-09T07:29:32.989Z,136.8750
2024-05-09T07:30:35.171Z,122.6250
2024-05-09T07:31:35.215Z,109.1250
2024-05-09T07:32:47.096Z,100.3125
2024-05-09T07:33:47.148Z,93.3750
2024-05-09T07:34:47.192Z,91.1250
2024-05-09T07:35:58.933Z,90.9375
2024-05-09T07:37:10.643Z,105.0000
2024-05-09T07:38:22.512Z,92.8125
2024-05-09T07:39:22.670Z,86.6250
2024-05-09T07:40:36.644Z,84.3750
2024-05-09T07:41:37.486Z,70.8750
2024-05-09T07:42:37.541Z,70.8750
2024-05-09T07:43:50.276Z,67.5000
2024-05-09T07:44:51.277Z,84.3750
2024-05-09T07:46:48.234Z,100.3125
2024-05-09T07:48:14.696Z,90.0000
2024-05-09T07:49:45.087Z,82.1250
2024-05-09T07:53:08.679Z,78.7500
2024-05-09T07:53:33.658Z,82.1250
2024-05-09T07:53:47.320Z,72.0000
2024-05-09T07:54:49.818Z,67.5000
2024-05-09T07:55:51.072Z,67.5000
2024-05-09T07:56:51.221Z,72.0000
2024-05-09T07:57:51.609Z,103.5000
2024-05-09T07:58:52.172Z,106.8750
2024-05-09T07:59:52.294Z,101.2500
2024-05-09T08:00:52.379Z,90.0000
2024-05-09T08:01:52.464Z,86.6250
2024-05-09T08:02:52.730Z,95.6250
2024-05-09T08:03:53.090Z,115.8750
2024-05-09T08:04:53.295Z,124.8750
2024-05-09T08:05:54.453Z,129.3750
2024-05-09T08:06:54.568Z,120.3750
2024-05-09T08:07:55.583Z,133.8750
2024-05-09T08:09:11.116Z,131.2500
2024-05-09T08:10:15.471Z,120.3750
2024-05-09T08:11:18.933Z,117.0000
2024-05-09T08:12:30.847Z,110.6250
2024-05-09T08:13:42.585Z,120.0000
2024-05-09T08:14:56.198Z,142.5000
2024-05-09T08:16:07.972Z,93.7500
2024-05-09T08:17:19.800Z,87.1875
2024-05-09T08:18:31.883Z,131.2500
2024-05-09T08:19:32.006Z,120.3750
2024-05-09T08:20:43.727Z,105.9375
2024-05-09T08:21:55.540Z,86.2500
2024-05-09T08:23:07.336Z,76.8750
2024-05-09T08:24:19.128Z,84.3750
2024-05-09T08:25:30.916Z,90.9375
2024-05-09T08:26:42.682Z,66.5625
2024-05-09T08:27:54.452Z,56.2500
2024-05-09T08:28:54.505Z,51.7500
2024-05-09T08:31:17.970Z,76.8750
2024-05-09T08:32:29.938Z,75.0000
2024-05-09T08:33:31.236Z,73.1250
2024-05-09T08:34:31.216Z,68.6250
2024-05-09T08:35:31.293Z,58.5000
2024-05-09T08:36:43.163Z,56.2500
2024-05-09T08:37:43.278Z,51.7500
2024-05-09T08:38:43.386Z,51.7500
2024-05-09T08:39:43.369Z,79.8750
2024-05-09T08:40:43.433Z,132.7500
2024-05-09T08:41:44.359Z,112.5000
2024-05-09T08:42:56.166Z,97.5000
2024-05-09T08:44:07.884Z,105.0000
2024-05-09T08:45:19.617Z,139.6875
2024-05-09T08:46:31.361Z,154.6875
2024-05-09T08:47:31.787Z,172.1250
2024-05-09T08:48:33.095Z,183.3750
2024-05-09T08:49:33.263Z,174.3750
2024-05-09T08:50:38.535Z,154.1250
2024-05-09T08:51:41.058Z,131.6250
2024-05-09T08:52:41.093Z,117.0000
2024-05-09T08:53:41.052Z,136.1250
2024-05-09T08:54:52.846Z,149.0625
2024-05-09T08:56:04.670Z,145.3125
2024-05-09T08:57:16.523Z,146.2500
2024-05-09T08:58:16.797Z,150.7500
2024-05-09T08:59:16.831Z,138.3750
2024-05-09T09:00:35.948Z,150.9375
2024-05-09T09:01:34.398Z,126.0000
2024-05-09T09:02:34.694Z,110.2500
2024-05-09T09:03:34.815Z,131.6250
2024-05-09T09:04:34.955Z,132.7500
2024-05-09T09:05:46.750Z,131.2500
2024-05-09T09:06:59.767Z,89.0625
2024-05-09T09:08:00.294Z,67.5000
2024-05-09T09:09:12.302Z,54.3750
2024-05-09T09:10:29.884Z,50.6250
2024-05-09T09:11:31.614Z,52.8750
2024-05-09T09:12:31.620Z,56.2500
2024-05-09T09:13:43.437Z,57.1875
2024-05-09T09:14:55.183Z,70.3125
2024-05-09T09:16:07.045Z,108.7500
2024-05-09T09:17:07.003Z,111.3750
2024-05-09T09:18:19.272Z,112.5000
2024-05-09T09:19:19.432Z,109.1250
2024-05-09T09:20:26.269Z,111.3750
2024-05-09T09:21:25.286Z,94.5000
2024-05-09T09:22:38.094Z,98.4375
2024-05-09T09:23:38.037Z,110.2500
2024-05-09T09:24:49.895Z,88.1250
2024-05-09T09:26:01.751Z,93.7500
2024-05-09T09:27:13.606Z,112.5000
2024-05-09T09:28:25.427Z,160.3125
2024-05-09T09:29:37.211Z,205.3125
2024-05-09T09:30:48.973Z,207.1875
2024-05-09T09:32:00.701Z,204.3750
2024-05-09T09:33:12.550Z,191.2500
2024-05-09T09:34:24.642Z,193.1250
2024-05-09T09:35:24.556Z,194.6250
2024-05-09T09:36:36.292Z,180.0000
2024-05-09T09:37:47.984Z,179.0625
2024-05-09T09:38:59.758Z,143.4375
2024-05-09T09:40:13.311Z,134.0625
2024-05-09T09:41:13.609Z,155.2500
2024-05-09T09:42:25.299Z,183.7500
2024-05-09T09:43:37.110Z,175.3125
2024-05-09T09:44:57.794Z,159.3750
2024-05-09T09:45:54.712Z,149.6250
2024-05-09T09:47:07.120Z,147.1875
2024-05-09T09:48:07.036Z,156.3750
2024-05-09T09:49:19.826Z,179.0625
2024-05-09T09:50:34.572Z,180.9375
2024-05-09T09:51:35.447Z,165.3750
2024-05-09T09:52:35.395Z,147.3750
2024-05-09T09:53:47.208Z,157.5000
2024-05-09T09:54:58.994Z,180.0000
2024-05-09T09:55:58.975Z,226.1250
2024-05-09T09:57:10.636Z,239.0625
2024-05-09T09:58:22.395Z,215.6250
2024-05-09T09:59:34.177Z,204.3750
2024-05-09T10:00:46.328Z,225.9375
2024-05-09T10:01:46.338Z,237.3750
2024-05-09T10:02:58.084Z,240.9375
2024-05-09T10:04:09.812Z,235.3125
2024-05-09T10:05:21.754Z,249.3750
2024-05-09T10:06:21.670Z,253.1250
2024-05-09T10:07:22.508Z,255.3750
2024-05-09T10:08:34.164Z,253.1250
2024-05-09T10:09:45.895Z,256.8750
2024-05-09T10:10:58.668Z,259.6875
2024-05-09T10:12:10.402Z,271.8750
2024-05-09T10:13:22.054Z,257.8125
2024-05-09T10:14:33.702Z,250.3125
2024-05-09T10:15:34.580Z,258.7500
2024-05-09T10:16:46.198Z,255.9375
2024-05-09T10:17:57.908Z,245.6250
2024-05-09T10:19:09.671Z,241.8750
2024-05-09T10:20:27.715Z,242.8125
2024-05-09T10:21:27.923Z,250.8750
2024-05-09T10:22:39.529Z,255.0000
2024-05-09T10:23:51.209Z,254.0625
2024-05-09T10:25:04.821Z,266.2500
2024-05-09T10:26:05.922Z,279.0000
2024-05-09T10:27:06.127Z,289.1250
2024-05-09T10:28:17.788Z,279.3750
2024-05-09T10:29:18.797Z,290.2500
2024-05-09T10:30:35.801Z,278.4375
2024-05-09T10:31:36.246Z,264.3750
2024-05-09T10:32:47.959Z,255.9375
2024-05-09T10:33:59.995Z,253.1250
2024-05-09T10:35:00.082Z,265.5000
2024-05-09T10:36:00.009Z,252.0000
2024-05-09T10:37:11.623Z,237.1875
2024-05-09T10:38:23.202Z,205.3125
2024-05-09T10:39:34.940Z,179.0625
2024-05-09T10:40:46.526Z,163.1250
2024-05-09T10:41:58.189Z,178.1250
2024-05-09T10:43:09.838Z,193.1250
2024-05-09T10:44:21.359Z,153.7500
2024-05-09T10:45:32.957Z,140.6250
2024-05-09T10:46:44.553Z,131.2500
2024-05-09T10:47:56.377Z,109.6875
2024-05-09T10:49:08.186Z,101.2500
2024-05-09T10:50:25.552Z,107.8125
2024-05-09T10:51:25.773Z,147.3750
2024-05-09T10:52:37.352Z,173.4375
2024-05-09T10:53:48.954Z,180.0000
2024-05-09T10:55:01.694Z,225.9375
2024-05-09T10:56:04.041Z,240.7500
2024-05-09T10:57:15.591Z,258.7500
2024-05-09T10:58:27.238Z,275.6250
2024-05-09T10:59:38.950Z,270.0000
2024-05-09T11:00:50.582Z,270.0000
2024-05-09T11:02:02.415Z,275.6250
2024-05-09T11:03:14.043Z,275.6250
2024-05-09T11:04:25.714Z,278.4375
2024-05-09T11:05:37.563Z,294.3750
2024-05-09T11:06:37.498Z,292.5000
2024-05-09T11:07:37.447Z,284.6250
2024-05-09T11:08:49.055Z,291.5625
2024-05-09T11:10:00.801Z,274.6875
2024-05-09T11:11:12.463Z,275.6250
2024-05-09T11:12:24.987Z,272.8125
2024-05-09T11:13:24.984Z,258.7500
2024-05-09T11:14:36.570Z,226.8750
2024-05-09T11:15:48.213Z,202.5000
2024-05-09T11:16:59.970Z,205.3125
2024-05-09T11:18:11.792Z,225.9375
2024-05-09T11:19:11.787Z,219.3750
2024-05-09T11:20:29.444Z,199.6875
2024-05-09T11:21:29.312Z,223.8750
2024-05-09T11:22:41.627Z,302.8125
2024-05-09T11:23:41.834Z,400.5000
2024-05-09T11:24:41.703Z,347.6250
2024-05-09T11:25:53.390Z,291.5625
2024-05-09T11:27:05.031Z,276.5625
2024-05-09T11:28:16.833Z,273.7500
2024-05-09T11:29:19.236Z,256.5000
2024-05-09T11:30:26.559Z,210.3750
2024-05-09T11:31:25.450Z,175.5000
2024-05-09T11:32:25.528Z,175.5000
2024-05-09T11:33:25.492Z,200.2500
2024-05-09T11:34:37.095Z,201.5625
2024-05-09T11:35:48.713Z,202.5000
2024-05-09T11:37:00.433Z,197.8125
2024-05-09T11:38:12.088Z,201.5625
2024-05-09T11:39:23.907Z,215.6250
2024-05-09T11:40:25.998Z,234.0000
2024-05-09T11:41:29.323Z,241.8750
2024-05-09T11:42:40.873Z,239.0625
2024-05-09T11:43:52.617Z,250.3125
2024-05-09T11:45:04.147Z,268.1250
2024-05-09T11:46:15.903Z,256.8750
2024-05-09T11:47:27.588Z,238.1250
2024-05-09T11:48:39.380Z,208.1250
2024-05-09T11:49:39.416Z,191.2500
2024-05-09T11:50:51.064Z,185.6250
2024-05-09T11:52:02.710Z,184.6875
2024-05-09T11:53:14.265Z,169.6875
2024-05-09T11:54:25.821Z,130.3125
2024-05-09T11:55:37.334Z,108.7500
2024-05-09T11:56:48.986Z,109.6875
2024-05-09T11:58:00.611Z,116.2500
2024-05-09T11:59:12.271Z,128.4375
2024-05-09T12:00:33.564Z,159.3750
2024-05-09T12:01:29.938Z,175.5000
2024-05-09T12:02:29.909Z,181.1250
2024-05-09T12:03:41.682Z,175.3125
2024-05-09T12:04:53.424Z,163.1250
2024-05-09T12:05:53.325Z,168.7500
2024-05-09T12:07:05.043Z,194.0625
2024-05-09T12:08:16.684Z,208.1250
2024-05-09T12:09:28.395Z,220.3125
2024-05-09T12:10:40.127Z,290.6250
2024-05-09T12:11:51.919Z,270.0000
2024-05-09T12:13:05.549Z,246.5625
2024-05-09T12:14:06.909Z,229.5000
2024-05-09T12:15:18.578Z,221.2500
2024-05-09T12:16:30.337Z,198.7500
2024-05-09T12:17:31.228Z,198.0000
2024-05-09T12:18:31.178Z,202.5000
2024-05-09T12:19:42.831Z,208.1250
2024-05-09T12:20:54.622Z,210.0000
2024-05-09T12:22:06.286Z,218.4375
2024-05-09T12:23:17.883Z,219.3750
2024-05-09T12:24:29.508Z,223.1250
2024-05-09T12:25:41.237Z,228.7500
2024-05-09T12:26:52.945Z,238.1250
2024-05-09T12:28:04.647Z,236.2500
2024-05-09T12:29:16.280Z,241.8750
2024-05-09T12:30:35.760Z,258.7500
2024-05-09T12:31:34.349Z,234.0000
2024-05-09T12:32:46.531Z,237.1875
2024-05-09T12:33:46.541Z,281.2500
2024-05-09T12:34:46.427Z,412.8750
2024-05-09T12:35:58.158Z,290.6250
2024-05-09T12:37:10.176Z,271.8750
2024-05-09T12:38:10.127Z,241.8750
2024-05-09T12:39:21.784Z,254.0625
2024-05-09T12:40:36.971Z,277.5000
2024-05-09T12:41:39.271Z,272.2500
2024-05-09T12:42:40.002Z,247.5000
2024-05-09T12:43:51.569Z,243.7500
2024-05-09T12:45:03.199Z,245.6250
2024-05-09T12:46:14.923Z,263.4375
2024-05-09T12:47:15.192Z,270.0000
2024-05-09T12:48:27.156Z,261.5625
2024-05-09T12:49:27.164Z,239.6250
2024-05-09T12:50:32.214Z,217.1250
2024-05-09T12:51:33.327Z,213.7500
2024-05-09T12:52:45.096Z,206.2500
2024-05-09T12:53:45.942Z,205.8750
2024-05-09T12:54:57.703Z,202.5000
2024-05-09T12:56:01.843Z,211.5000
2024-05-09T12:57:03.485Z,218.2500
2024-05-09T12:58:15.485Z,233.4375
2024-05-09T12:59:15.451Z,248.6250
2024-05-09T13:00:31.585Z,239.0625